Aérodrome :
LOGIN :

S'inscrire | Disclaimer

   EN    FR    IT 

 










Légende :    VFR   VFR Marginal   IFR   IFR Intensif   IFR Très Intensif
Visi : 
Plafond : 
>= 8 km
>= 3000ft
5 à 8 km
1000 à 3000 ft
1500m à 5 km
500 à 1000 ft
800 à 1500m
200 à 500 ft
< 800m
< 200 ft
Symboles :   Orages  Brouillard  Fortes neiges  Fortes précipitations  Vent > 20 kt
SIGMETs :   Divers  Orages  Givrage  Turbulence  Onde Orograph.  Cendres Volcan.







- Altitude de l'aérodrome : 16 ft
- Code IATA : AAE


DABB - Annaba-Rabah Bitat

DERNIER METAR :
  • 261200Z 02016KT 9999 FEW023 BKN200 28/17 Q1013

METARs EXPIRÉS :
  • 261130Z 01016KT 9999 FEW023 SCT030 29/17 Q1013
  • 261100Z 02014KT 9999 FEW023 SCT030 29/17 Q1013
  • 261030Z 01013KT 9999 FEW023 SCT030 29/17 Q1013
  • 261000Z 01011KT 9999 FEW023 SCT030 28/17 Q1013
  • 260930Z 01008KT 340V040 9999 FEW023 SCT030 28/17 Q1013

TAF TAF DABB
Valide du 26 à 12h jusqu'au 27 à 12h UTC


261100Z 2612/2712 34014KT 9999 FEW023 SCT100
PROB30
TEMPO 2612/2618 FEW026TCU
BECMG 2621/2623 22006KT
PROB30
TEMPO 2702/2706 2000 BR SCT008
Pas de NOTAMs connus pour ce terrain.



MET'MAP, la Météo Aéronautique d'un coup d'oeil ! - Copyright ORBIFLY Décembre 2007 - Disclaimer

ORBIFLY MET'MAP TEAM :

Programmation & Développement : Alexandra Zaïnal
Conception & Développement : Baudouin d'Aumeries
Co-Programmation & Développement : Marc-Olivier Méhu
Soutien technique & logistique : Manuel Goepfert

Contact : metmap@orbifly.com




SOURCES & CREDITS :

   NOAA